createdAt,value
2022-11-16T00:09:51.402Z,9.38
2022-11-16T00:20:31.376Z,9.53
2022-11-16T00:23:47.342Z,9.24
2022-11-16T00:26:50.145Z,9.45
2022-11-16T00:30:21.849Z,9.61
2022-11-16T00:33:33.189Z,9.20
2022-11-16T00:36:39.088Z,9.60
2022-11-16T00:43:50.337Z,9.57
2022-11-16T00:47:00.758Z,9.25
2022-11-16T00:51:01.811Z,9.75
2022-11-16T00:58:53.726Z,10.16
2022-11-16T01:01:56.116Z,10.18
2022-11-16T01:05:09.786Z,10.21
2022-11-16T01:08:17.949Z,10.43
2022-11-16T01:11:47.768Z,10.69
2022-11-16T01:15:00.319Z,10.63
2022-11-16T01:22:14.914Z,10.81
2022-11-16T01:25:23.468Z,10.70
2022-11-16T01:28:47.924Z,10.95
2022-11-16T01:32:42.724Z,11.10
2022-11-16T01:48:36.929Z,10.16
2022-11-16T01:51:53.970Z,9.94
2022-11-16T01:55:00.093Z,10.04
2022-11-16T01:58:14.553Z,9.94
2022-11-16T02:01:32.787Z,9.52
2022-11-16T02:09:40.803Z,9.48
2022-11-16T02:13:13.087Z,9.60
2022-11-16T02:17:00.580Z,9.56
2022-11-16T02:20:57.566Z,9.98
2022-11-16T02:24:24.392Z,10.13
2022-11-16T02:28:20.373Z,10.42
2022-11-16T02:36:12.960Z,10.28
2022-11-16T02:39:41.610Z,10.49
2022-11-16T02:43:00.649Z,10.43
2022-11-16T02:46:32.113Z,10.56
2022-11-16T02:49:40.459Z,10.52
2022-11-16T02:52:44.934Z,10.38
2022-11-16T02:55:47.478Z,10.39
2022-11-16T02:58:55.076Z,10.55
2022-11-16T03:02:31.466Z,10.81
2022-11-16T03:05:41.663Z,10.80
2022-11-16T03:08:52.508Z,10.87
2022-11-16T03:12:27.644Z,10.66
2022-11-16T03:19:53.526Z,10.68
2022-11-16T03:23:11.367Z,10.91
2022-11-16T03:26:47.075Z,10.81
2022-11-16T03:30:11.509Z,11.00
2022-11-16T03:33:27.871Z,10.99
2022-11-16T03:36:35.621Z,11.03
2022-11-16T03:39:51.151Z,10.88
2022-11-16T03:43:11.330Z,10.77
2022-11-16T03:46:20.638Z,10.89
2022-11-16T03:49:23.943Z,10.90
2022-11-16T03:52:33.257Z,10.99
2022-11-16T03:55:38.354Z,11.00
2022-11-16T03:58:41.247Z,10.97
2022-11-16T04:01:47.756Z,10.97
2022-11-16T04:05:11.829Z,10.86
2022-11-16T04:08:47.298Z,10.71
2022-11-16T04:19:29.353Z,10.61
2022-11-16T04:23:25.305Z,11.02
2022-11-16T04:26:47.135Z,10.84
2022-11-16T04:29:51.196Z,11.05
2022-11-16T04:33:38.586Z,11.02
2022-11-16T04:37:01.838Z,10.97
2022-11-16T04:40:10.888Z,10.92
2022-11-16T04:43:32.348Z,10.89
2022-11-16T04:51:17.823Z,10.75
2022-11-16T04:54:26.918Z,10.90
2022-11-16T04:57:53.843Z,10.61
2022-11-16T05:01:24.626Z,10.71
2022-11-16T05:04:40.941Z,10.79
2022-11-16T05:07:45.216Z,10.52
2022-11-16T05:11:40.575Z,10.71
2022-11-16T05:18:52.035Z,10.68
2022-11-16T05:22:26.380Z,10.41
2022-11-16T05:25:36.660Z,10.34
2022-11-16T05:28:42.184Z,10.04
2022-11-16T05:31:59.799Z,10.00
2022-11-16T05:38:32.550Z,9.67
2022-11-16T05:41:37.635Z,9.59
2022-11-16T05:44:50.886Z,9.89
2022-11-16T05:47:54.687Z,9.73
2022-11-16T05:51:00.255Z,9.81
2022-11-16T05:54:27.373Z,9.59
2022-11-16T05:57:33.496Z,9.78
2022-11-16T06:00:35.818Z,9.85
2022-11-16T06:03:40.742Z,9.74
2022-11-16T06:06:50.386Z,9.57
2022-11-16T06:10:01.124Z,9.82
2022-11-16T06:13:03.491Z,9.93
2022-11-16T06:16:24.715Z,9.92
2022-11-16T06:19:32.053Z,10.07
2022-11-16T06:22:38.213Z,9.99
2022-11-16T06:25:40.972Z,9.88
2022-11-16T06:28:46.714Z,9.90
2022-11-16T06:32:02.520Z,9.82
2022-11-16T06:35:12.304Z,10.07
2022-11-16T06:38:18.822Z,10.09
2022-11-16T06:41:26.880Z,9.91
2022-11-16T06:48:16.231Z,9.83
2022-11-16T06:51:24.011Z,9.83
2022-11-16T06:54:31.933Z,9.80
2022-11-16T06:57:48.849Z,9.93
2022-11-16T07:01:35.006Z,9.88
2022-11-16T07:04:49.744Z,10.10
2022-11-16T07:08:17.845Z,9.95
2022-11-16T07:11:21.743Z,9.76
2022-11-16T07:14:27.767Z,9.80
2022-11-16T07:17:43.051Z,9.78
2022-11-16T07:28:16.169Z,9.99
2022-11-16T07:31:49.303Z,10.16
2022-11-16T07:35:11.854Z,9.76
2022-11-16T07:42:20.507Z,10.01
2022-11-16T07:45:42.528Z,10.27
2022-11-16T07:48:45.924Z,10.26
2022-11-16T07:52:13.521Z,10.29
2022-11-16T07:55:32.358Z,10.39
2022-11-16T07:58:37.758Z,10.35
2022-11-16T08:01:39.971Z,10.43
2022-11-16T08:04:44.191Z,10.33
2022-11-16T08:07:46.476Z,10.49
2022-11-16T08:10:49.103Z,10.52
2022-11-16T08:13:51.263Z,10.58
2022-11-16T08:16:54.385Z,10.49
2022-11-16T08:19:57.346Z,10.65
2022-11-16T08:23:00.818Z,10.70
2022-11-16T08:26:08.101Z,10.65
2022-11-16T08:29:11.581Z,10.57
2022-11-16T08:32:16.295Z,10.66
2022-11-16T08:35:18.932Z,10.57
2022-11-16T08:38:21.093Z,10.50
2022-11-16T08:41:24.667Z,10.36
2022-11-16T08:44:26.437Z,10.23
2022-11-16T08:47:31.826Z,10.31
2022-11-16T08:50:55.444Z,10.31
2022-11-16T08:53:58.142Z,10.32
2022-11-16T08:57:01.287Z,10.28
2022-11-16T09:00:07.419Z,10.26
2022-11-16T09:03:09.056Z,10.50
2022-11-16T09:06:12.045Z,10.79
2022-11-16T09:09:13.653Z,10.74
2022-11-16T09:12:15.468Z,10.73
2022-11-16T09:15:19.175Z,10.75
2022-11-16T09:18:20.879Z,10.82
2022-11-16T09:21:25.491Z,10.91
2022-11-16T09:24:29.975Z,10.88
2022-11-16T09:27:31.750Z,10.99
2022-11-16T09:30:33.394Z,11.02
2022-11-16T09:33:35.277Z,11.28
2022-11-16T09:36:37.083Z,11.61
2022-11-16T09:39:38.672Z,11.74
2022-11-16T09:43:01.935Z,12.04
2022-11-16T09:46:15.099Z,11.99
2022-11-16T09:49:24.170Z,11.96
2022-11-16T09:52:40.122Z,11.94
2022-11-16T09:55:54.047Z,12.08
2022-11-16T09:59:07.866Z,12.26
2022-11-16T10:02:21.212Z,12.51
2022-11-16T10:05:58.663Z,12.74
2022-11-16T10:09:00.626Z,12.64
2022-11-16T10:12:07.796Z,13.07
2022-11-16T10:15:31.620Z,12.71
2022-11-16T10:18:37.360Z,12.56
2022-11-16T10:21:58.067Z,12.56
2022-11-16T10:25:07.330Z,12.69
2022-11-16T10:28:48.199Z,12.51
2022-11-16T10:32:28.022Z,12.42
2022-11-16T10:35:48.533Z,12.27
2022-11-16T10:38:50.212Z,12.59
2022-11-16T10:41:51.996Z,12.55
2022-11-16T10:45:12.158Z,12.50
2022-11-16T10:48:41.245Z,12.45
2022-11-16T10:51:43.679Z,12.33
2022-11-16T10:58:11.946Z,12.32
2022-11-16T11:01:32.835Z,12.32
2022-11-16T11:04:34.667Z,12.70
2022-11-16T11:07:52.112Z,12.33
2022-11-16T11:11:42.294Z,12.65
2022-11-16T11:15:02.551Z,12.93
2022-11-16T11:18:19.203Z,13.19
2022-11-16T11:21:29.195Z,13.43
2022-11-16T11:24:44.301Z,13.71
2022-11-16T11:27:46.923Z,13.54
2022-11-16T11:30:57.790Z,13.29
2022-11-16T11:34:18.220Z,13.09
2022-11-16T11:37:42.529Z,12.96
2022-11-16T11:41:07.955Z,12.73
2022-11-16T11:44:14.156Z,13.01
2022-11-16T11:48:20.497Z,12.52
2022-11-16T11:52:02.820Z,13.01
2022-11-16T11:55:11.014Z,13.78
2022-11-16T11:58:45.342Z,14.02
2022-11-16T12:01:56.032Z,13.76
2022-11-16T12:05:03.691Z,13.58
2022-11-16T12:08:08.013Z,13.58
2022-11-16T12:11:09.554Z,13.66
2022-11-16T12:14:20.163Z,13.91
2022-11-16T12:17:38.045Z,13.86
2022-11-16T12:20:55.748Z,14.14
2022-11-16T12:24:28.613Z,13.71
2022-11-16T12:27:35.459Z,13.61
2022-11-16T12:31:18.036Z,13.95
2022-11-16T12:34:33.827Z,13.65
2022-11-16T12:37:49.803Z,13.60
2022-11-16T12:41:03.838Z,13.56
2022-11-16T12:44:12.744Z,13.33
2022-11-16T12:47:17.964Z,13.58
2022-11-16T12:50:57.261Z,13.58
2022-11-16T12:54:26.344Z,13.45
2022-11-16T12:58:01.479Z,13.37
2022-11-16T13:01:43.631Z,13.50
2022-11-16T13:04:55.071Z,13.47
2022-11-16T13:08:07.958Z,13.74
2022-11-16T13:11:26.077Z,14.25
2022-11-16T13:17:58.853Z,14.37
2022-11-16T13:21:15.247Z,14.40
2022-11-16T13:24:24.602Z,14.63
2022-11-16T13:27:38.565Z,14.55
2022-11-16T13:31:08.824Z,14.49
2022-11-16T13:34:35.662Z,13.93
2022-11-16T13:37:37.600Z,13.83
2022-11-16T13:40:39.851Z,13.49
2022-11-16T13:43:48.579Z,13.47
2022-11-16T13:47:06.408Z,13.43
2022-11-16T13:50:38.617Z,13.13
2022-11-16T13:54:44.089Z,13.01
2022-11-16T13:57:22.673Z,13.30
2022-11-16T14:00:30.486Z,13.53
2022-11-16T14:03:39.993Z,13.88
2022-11-16T14:10:51.455Z,13.24
2022-11-16T14:15:42.808Z,13.40
2022-11-16T14:22:05.997Z,13.61
2022-11-16T14:29:38.238Z,12.77
2022-11-16T14:32:49.601Z,12.64
2022-11-16T14:39:53.725Z,13.27
2022-11-16T14:43:21.524Z,13.03
2022-11-16T14:46:27.734Z,12.87
2022-11-16T14:49:34.392Z,12.67
2022-11-16T14:52:45.104Z,12.66
2022-11-16T14:56:37.602Z,12.53
2022-11-16T14:59:39.281Z,12.40
2022-11-16T15:02:41.076Z,12.27
2022-11-16T15:05:44.880Z,12.36
2022-11-16T15:08:54.521Z,12.19
2022-11-16T15:12:21.463Z,12.26
2022-11-16T15:15:31.388Z,11.86
2022-11-16T15:18:33.219Z,11.82
2022-11-16T15:21:35.173Z,11.88
2022-11-16T15:24:37.104Z,11.58
2022-11-16T15:27:41.439Z,11.50
2022-11-16T15:30:47.113Z,11.41
2022-11-16T15:33:52.046Z,11.50
2022-11-16T15:36:53.914Z,11.44
2022-11-16T15:39:58.296Z,11.36
2022-11-16T15:43:03.048Z,11.43
2022-11-16T15:46:07.117Z,11.40
2022-11-16T15:49:17.864Z,11.25
2022-11-16T15:52:42.694Z,11.32
2022-11-16T15:55:50.095Z,11.40
2022-11-16T15:58:58.033Z,11.30
2022-11-16T16:02:02.349Z,11.33
2022-11-16T16:05:06.791Z,11.31
2022-11-16T16:08:28.078Z,10.89
2022-11-16T16:11:29.755Z,10.79
2022-11-16T16:14:31.647Z,11.01
2022-11-16T16:17:33.301Z,11.19
2022-11-16T16:20:35.891Z,11.02
2022-11-16T16:23:46.624Z,11.02
2022-11-16T16:26:50.580Z,11.08
2022-11-16T16:30:01.795Z,11.08
2022-11-16T16:33:03.536Z,11.12
2022-11-16T16:36:35.247Z,10.67
2022-11-16T16:39:58.574Z,10.67
2022-11-16T16:43:00.335Z,10.82
2022-11-16T17:11:55.083Z,10.56
2022-11-16T17:47:35.931Z,10.24
2022-11-16T17:51:48.045Z,10.49
2022-11-16T17:54:52.183Z,10.26
2022-11-16T17:58:06.108Z,10.69
2022-11-16T18:13:22.068Z,10.38
